| time (UTC) | temp F | wind direction | speed MPH | gust MPH | rain 1hr in | rain 24hr in | rain mn in | humidity % | barometer mb |
| 20260504151008 | 72 | 238 | 3.0 | 10.0 | 0.00 | 0.00 | 0.00 | 41 | 1001.6 |
| 20260504150509 | 72 | 219 | 5.0 | 11.0 | 0.00 | 0.00 | 0.00 | 39 | 1001.6 |
| 20260504141006 | 66 | 236 | 2.0 | 7.0 | 0.00 | 0.00 | 0.00 | 49 | 1002.3 |
| 20260504140507 | 65 | 260 | 4.0 | 8.0 | 0.00 | 0.00 | 0.00 | 49 | 1002.4 |
| 20260504130506 | 58 | 205 | 2.0 | 6.0 | 0.00 | 0.01 | 0.00 | 62 | 1003.1 |
| 20260504110509 | 49 | 232 | 3.0 | 5.0 | 0.00 | 0.01 | 0.00 | 71 | 1003.4 |
| 20260504100509 | 49 | 243 | 2.0 | 5.0 | 0.00 | 0.01 | 0.00 | 67 | 1003.8 |
| 20260504081521 | 50 | 255 | 1.0 | 4.0 | 0.00 | 0.01 | 0.00 | 62 | 1004.6 |
| 20260504081003 | 49 | 215 | 0.0 | 3.0 | 0.00 | 0.01 | 0.00 | 62 | 1004.7 |
| 20260504080509 | 49 | 217 | 0.0 | 4.0 | 0.00 | 0.01 | 0.00 | 61 | 1004.7 |
| 20260504050508 | 53 | 216 | 1.0 | 3.0 | 0.00 | 0.01 | 0.00 | 53 | 1006.5 |
| 20260504050020 | 54 | 231 | 0.0 | 0.0 | 0.00 | 0.01 | 0.00 | 53 | 1006.5 |
| 20260504045503 | 55 | 231 | 0.0 | 1.0 | 0.00 | 0.01 | 0.01 | 50 | 1006.5 |
| 20260504045007 | 56 | 231 | 0.0 | 2.0 | 0.00 | 0.01 | 0.01 | 49 | 1006.6 |
| 20260504044524 | 56 | 231 | 0.0 | 5.0 | 0.00 | 0.01 | 0.01 | 48 | 1006.7 |
| 20260504044009 | 56 | 250 | 2.0 | 5.0 | 0.00 | 0.01 | 0.01 | 48 | 1006.7 |
| 20260504043509 | 56 | 243 | 2.0 | 3.0 | 0.00 | 0.01 | 0.01 | 48 | 1006.8 |
| 20260504043028 | 55 | 228 | 0.0 | 4.0 | 0.00 | 0.01 | 0.01 | 51 | 1006.8 |
| 20260504042509 | 54 | 213 | 2.0 | 4.0 | 0.00 | 0.01 | 0.01 | 53 | 1006.8 |
| 20260504042011 | 54 | 214 | 0.0 | 2.0 | 0.00 | 0.01 | 0.01 | 56 | 1006.8 |
| 20260504041539 | 54 | 278 | 0.0 | 1.0 | 0.00 | 0.01 | 0.01 | 53 | 1006.8 |
| 20260504041005 | 55 | 278 | 0.0 | 1.0 | 0.00 | 0.01 | 0.01 | 52 | 1006.8 |
| 20260504040507 | 55 | 278 | 0.0 | 1.0 | 0.00 | 0.01 | 0.01 | 53 | 1006.8 |
| 20260504040021 | 55 | 305 | 0.0 | 1.0 | 0.00 | 0.01 | 0.01 | 52 | 1006.8 |
| 20260504035505 | 55 | 64 | 0.0 | 1.0 | 0.00 | 0.01 | 0.01 | 51 | 1006.9 |
| 20260504035006 | 55 | 331 | 0.0 | 1.0 | 0.00 | 0.01 | 0.01 | 50 | 1006.8 |
| 20260504034518 | 55 | 331 | 0.0 | 1.0 | 0.00 | 0.01 | 0.01 | 53 | 1006.8 |
| 20260504034006 | 56 | 34 | 0.0 | 0.0 | 0.00 | 0.01 | 0.01 | 51 | 1006.8 |
| 20260504033507 | 56 | 105 | 0.0 | 0.0 | 0.00 | 0.01 | 0.01 | 51 | 1006.8 |
| 20260504033026 | 56 | 245 | 0.0 | 0.0 | 0.00 | 0.01 | 0.01 | 50 | 1006.8 |
| 20260504032506 | 56 | 245 | 0.0 | 0.0 | 0.00 | 0.01 | 0.01 | 50 | 1006.8 |
| 20260504032012 | 56 | 245 | 0.0 | 0.0 | 0.00 | 0.01 | 0.01 | 49 | 1006.8 |
| 20260504031528 | 56 | 245 | 0.0 | 0.0 | 0.00 | 0.01 | 0.01 | 49 | 1006.8 |
| 20260504031010 | 57 | 245 | 0.0 | 0.0 | 0.00 | 0.01 | 0.01 | 47 | 1006.8 |
| 20260504030509 | 58 | 245 | 0.0 | 3.0 | 0.00 | 0.01 | 0.01 | 46 | 1006.8 |
| 20260504030029 | 58 | 245 | 0.0 | 3.0 | 0.00 | 0.01 | 0.01 | 45 | 1006.8 |
| 20260504025507 | 58 | 237 | 0.0 | 2.0 | 0.00 | 0.01 | 0.01 | 46 | 1006.8 |
| 20260504025007 | 59 | 145 | 1.0 | 2.0 | 0.00 | 0.01 | 0.01 | 46 | 1006.8 |
| 20260504024517 | 59 | 258 | 0.0 | 2.0 | 0.00 | 0.01 | 0.01 | 43 | 1006.7 |
| 20260504024009 | 60 | 220 | 0.0 | 1.0 | 0.00 | 0.01 | 0.01 | 43 | 1006.7 |
| 20260504023504 | 60 | 221 | 0.0 | 1.0 | 0.00 | 0.01 | 0.01 | 42 | 1006.7 |
| 20260504023022 | 60 | 221 | 0.0 | 1.0 | 0.00 | 0.01 | 0.01 | 41 | 1006.7 |
| 20260504022508 | 61 | 221 | 0.0 | 1.0 | 0.00 | 0.01 | 0.01 | 40 | 1006.6 |
| 20260504022009 | 62 | 221 | 0.0 | 1.0 | 0.00 | 0.01 | 0.01 | 39 | 1006.5 |
| 20260504021523 | 62 | 245 | 0.0 | 3.0 | 0.00 | 0.01 | 0.01 | 38 | 1006.4 |
| 20260504021007 | 63 | 245 | 0.0 | 3.0 | 0.00 | 0.01 | 0.01 | 38 | 1006.4 |
| 20260504020503 | 63 | 217 | 2.0 | 3.0 | 0.00 | 0.01 | 0.01 | 37 | 1006.4 |
| 20260504020010 | 63 | 228 | 1.0 | 3.0 | 0.00 | 0.01 | 0.01 | 37 | 1006.4 |
| 20260504015504 | 64 | 235 | 0.0 | 3.0 | 0.00 | 0.01 | 0.01 | 37 | 1006.3 |
| 20260504015002 | 64 | 274 | 0.0 | 3.0 | 0.00 | 0.01 | 0.01 | 36 | 1006.3 |
| 20260504014514 | 64 | 224 | 1.0 | 3.0 | 0.00 | 0.01 | 0.01 | 37 | 1006.2 |
| 20260504014006 | 64 | 276 | 0.0 | 3.0 | 0.00 | 0.01 | 0.01 | 36 | 1006.2 |
| 20260504013508 | 64 | 247 | 1.0 | 3.0 | 0.00 | 0.01 | 0.01 | 37 | 1006.1 |
| 20260504013021 | 64 | 307 | 1.0 | 3.0 | 0.00 | 0.01 | 0.01 | 36 | 1006.1 |
| 20260504012508 | 65 | 258 | 0.0 | 1.0 | 0.00 | 0.01 | 0.01 | 36 | 1006.0 |
| 20260504012007 | 65 | 41 | 0.0 | 3.0 | 0.00 | 0.01 | 0.01 | 36 | 1006.0 |
| 20260504011525 | 66 | 257 | 0.0 | 3.0 | 0.00 | 0.01 | 0.01 | 34 | 1006.0 |
| 20260504011008 | 67 | 213 | 1.0 | 4.0 | 0.00 | 0.01 | 0.01 | 34 | 1006.0 |
| 20260504010509 | 67 | 248 | 1.0 | 4.0 | 0.00 | 0.01 | 0.01 | 33 | 1006.0 |
| 20260504010024 | 67 | 206 | 1.0 | 3.0 | 0.00 | 0.01 | 0.01 | 33 | 1006.0 |
| 20260504005509 | 68 | 226 | 0.0 | 4.0 | 0.00 | 0.01 | 0.01 | 33 | 1005.9 |
| 20260504005010 | 69 | 254 | 1.0 | 4.0 | 0.00 | 0.01 | 0.01 | 32 | 1005.9 |
| 20260504004528 | 69 | 307 | 1.0 | 6.0 | 0.00 | 0.01 | 0.01 | 31 | 1006.0 |
| 20260504004009 | 70 | 295 | 1.0 | 6.0 | 0.00 | 0.01 | 0.01 | 31 | 1005.9 |
| 20260504003508 | 70 | 248 | 1.0 | 6.0 | 0.00 | 0.01 | 0.01 | 30 | 1005.8 |
| 20260504003029 | 70 | 263 | 1.0 | 6.0 | 0.00 | 0.01 | 0.01 | 30 | 1005.9 |
| 20260504002503 | 71 | 212 | 2.0 | 6.0 | 0.00 | 0.01 | 0.01 | 30 | 1005.8 |
| 20260504002007 | 71 | 274 | 3.0 | 7.0 | 0.00 | 0.01 | 0.01 | 29 | 1005.8 |
| 20260504001528 | 72 | 281 | 2.0 | 7.0 | 0.00 | 0.01 | 0.01 | 29 | 1005.7 |
| 20260504001005 | 72 | 232 | 3.0 | 9.0 | 0.00 | 0.01 | 0.01 | 30 | 1005.7 |
| 20260504000509 | 72 | 219 | 4.0 | 8.0 | 0.00 | 0.01 | 0.01 | 28 | 1005.7 |
| 20260504000028 | 73 | 6 | 3.0 | 10.0 | 0.00 | 0.01 | 0.01 | 28 | 1005.7 |
| 20260503235508 | 73 | 4 | 3.0 | 7.0 | 0.00 | 0.01 | 0.01 | 28 | 1005.6 |
| 20260503235011 | 73 | 268 | 1.0 | 12.0 | 0.00 | 0.01 | 0.01 | 29 | 1005.6 |
| 20260503234529 | 74 | 262 | 4.0 | 12.0 | 0.00 | 0.01 | 0.01 | 28 | 1005.6 |
| 20260503234011 | 74 | 280 | 2.0 | 7.0 | 0.00 | 0.01 | 0.01 | 29 | 1005.5 |
| 20260503233510 | 74 | 31 | 3.0 | 11.0 | 0.00 | 0.01 | 0.01 | 29 | 1005.5 |
| 20260503233019 | 73 | 269 | 6.0 | 11.0 | 0.00 | 0.01 | 0.01 | 31 | 1005.5 |
| 20260503232514 | 73 | 268 | 4.0 | 13.0 | 0.00 | 0.01 | 0.01 | 35 | 1005.3 |
| 20260503232010 | 73 | 230 | 4.0 | 13.0 | 0.00 | 0.01 | 0.01 | 37 | 1005.5 |
| 20260503231518 | 73 | 281 | 4.0 | 11.0 | 0.00 | 0.01 | 0.01 | 39 | 1005.5 |
| 20260503231010 | 72 | 225 | 4.0 | 11.0 | 0.00 | 0.01 | 0.01 | 39 | 1005.6 |
| 20260503230511 | 73 | 214 | 3.0 | 11.0 | 0.00 | 0.01 | 0.01 | 38 | 1005.6 |
| 20260503230035 | 73 | 247 | 4.0 | 13.0 | 0.00 | 0.01 | 0.01 | 38 | 1005.6 |
| 20260503225505 | 73 | 261 | 4.0 | 15.0 | 0.00 | 0.01 | 0.01 | 39 | 1005.6 |
| 20260503225008 | 73 | 214 | 3.0 | 15.0 | 0.00 | 0.01 | 0.01 | 38 | 1005.6 |
| 20260503224527 | 73 | 225 | 6.0 | 11.0 | 0.00 | 0.01 | 0.01 | 38 | 1005.6 |
| 20260503224008 | 74 | 330 | 5.0 | 10.0 | 0.00 | 0.01 | 0.01 | 38 | 1005.6 |
| 20260503223511 | 74 | 260 | 4.0 | 14.0 | 0.00 | 0.01 | 0.01 | 37 | 1005.6 |
| 20260503223026 | 74 | 283 | 3.0 | 14.0 | 0.00 | 0.01 | 0.01 | 39 | 1005.6 |
| 20260503222510 | 74 | 294 | 3.0 | 11.0 | 0.00 | 0.01 | 0.01 | 39 | 1005.6 |
| 20260503222010 | 73 | 274 | 4.0 | 11.0 | 0.00 | 0.01 | 0.01 | 39 | 1005.6 |
| 20260503221530 | 74 | 231 | 4.0 | 13.0 | 0.00 | 0.01 | 0.01 | 39 | 1005.6 |
| 20260503221008 | 73 | 222 | 4.0 | 14.0 | 0.00 | 0.01 | 0.01 | 41 | 1005.6 |
| 20260503220511 | 73 | 83 | 7.0 | 14.0 | 0.00 | 0.01 | 0.01 | 41 | 1005.5 |
| 20260503220030 | 72 | 256 | 5.0 | 15.0 | 0.00 | 0.01 | 0.01 | 42 | 1005.6 |
| 20260503215508 | 71 | 232 | 4.0 | 12.0 | 0.00 | 0.01 | 0.01 | 42 | 1005.7 |
| 20260503215006 | 72 | 266 | 5.0 | 11.0 | 0.00 | 0.01 | 0.01 | 40 | 1005.7 |
| 20260503214536 | 73 | 255 | 5.0 | 15.0 | 0.00 | 0.01 | 0.01 | 40 | 1005.7 |
| 20260503214010 | 74 | 242 | 6.0 | 15.0 | 0.00 | 0.01 | 0.01 | 37 | 1005.7 |
| 20260503213507 | 74 | 210 | 4.0 | 10.0 | 0.00 | 0.01 | 0.01 | 34 | 1005.7 |
| 20260503213029 | 74 | 23 | 2.0 | 10.0 | 0.00 | 0.01 | 0.01 | 37 | 1005.7 |
| 20260503212513 | 75 | 207 | 4.0 | 12.0 | 0.00 | 0.01 | 0.01 | 37 | 1005.7 |
| 20260503212010 | 75 | 207 | 5.0 | 12.0 | 0.00 | 0.01 | 0.01 | 36 | 1005.8 |
| 20260503211526 | 75 | 259 | 1.0 | 9.0 | 0.00 | 0.01 | 0.01 | 37 | 1005.7 |
| 20260503211013 | 74 | 299 | 3.0 | 13.0 | 0.00 | 0.01 | 0.01 | 34 | 1005.8 |
| 20260503210511 | 74 | 264 | 5.0 | 13.0 | 0.00 | 0.01 | 0.01 | 33 | 1005.9 |
| 20260503210030 | 74 | 17 | 5.0 | 13.0 | 0.00 | 0.01 | 0.01 | 34 | 1005.9 |
| 20260503205507 | 74 | 295 | 8.0 | 12.0 | 0.00 | 0.01 | 0.01 | 34 | 1005.9 |
| 20260503205012 | 74 | 221 | 2.0 | 11.0 | 0.00 | 0.01 | 0.01 | 34 | 1006.0 |
| 20260503204522 | 74 | 287 | 2.0 | 12.0 | 0.00 | 0.01 | 0.01 | 35 | 1006.1 |
| 20260503204002 | 74 | 290 | 4.0 | 11.0 | 0.00 | 0.01 | 0.01 | 39 | 1006.1 |
| 20260503203512 | 74 | 295 | 4.0 | 11.0 | 0.00 | 0.01 | 0.01 | 37 | 1006.1 |
| 20260503203010 | 74 | 319 | 5.0 | 11.0 | 0.00 | 0.01 | 0.01 | 36 | 1006.1 |
| 20260503202503 | 74 | 211 | 2.0 | 7.0 | 0.00 | 0.01 | 0.01 | 39 | 1006.3 |
| 20260503202015 | 74 | 232 | 2.0 | 11.0 | 0.00 | 0.01 | 0.01 | 38 | 1006.4 |
| 20260503201524 | 73 | 200 | 4.0 | 10.0 | 0.00 | 0.01 | 0.01 | 38 | 1006.5 |
| 20260503201004 | 73 | 359 | 6.0 | 10.0 | 0.00 | 0.01 | 0.01 | 37 | 1006.5 |
| 20260503200503 | 73 | 317 | 4.0 | 10.0 | 0.00 | 0.01 | 0.01 | 38 | 1006.5 |
| 20260503200028 | 73 | 297 | 2.0 | 10.0 | 0.00 | 0.01 | 0.01 | 40 | 1006.6 |
| 20260503195508 | 73 | 231 | 3.0 | 9.0 | 0.00 | 0.01 | 0.01 | 40 | 1006.6 |
| 20260503195008 | 73 | 232 | 4.0 | 9.0 | 0.00 | 0.01 | 0.01 | 40 | 1006.6 |
| 20260503194528 | 73 | 328 | 3.0 | 7.0 | 0.00 | 0.01 | 0.01 | 41 | 1006.7 |
| 20260503194015 | 72 | 251 | 2.0 | 9.0 | 0.00 | 0.01 | 0.01 | 39 | 1006.9 |
| 20260503193508 | 71 | 207 | 3.0 | 11.0 | 0.00 | 0.01 | 0.01 | 39 | 1006.9 |
| 20260503193042 | 71 | 188 | 5.0 | 17.0 | 0.00 | 0.01 | 0.01 | 42 | 1007.0 |
| 20260503192509 | 71 | 201 | 3.0 | 17.0 | 0.00 | 0.01 | 0.01 | 40 | 1007.1 |
| 20260503192007 | 72 | 274 | 4.0 | 11.0 | 0.00 | 0.01 | 0.01 | 39 | 1007.1 |
| 20260503191557 | 71 | 273 | 3.0 | 9.0 | 0.00 | 0.01 | 0.01 | 41 | 1007.1 |
| 20260503191008 | 71 | 306 | 4.0 | 11.0 | 0.00 | 0.01 | 0.01 | 42 | 1007.2 |
| 20260503190505 | 71 | 297 | 3.0 | 16.0 | 0.00 | 0.01 | 0.01 | 41 | 1007.2 |
| 20260503190033 | 70 | 322 | 3.0 | 16.0 | 0.00 | 0.01 | 0.01 | 41 | 1007.2 |
| 20260503185505 | 70 | 266 | 4.0 | 11.0 | 0.00 | 0.01 | 0.01 | 41 | 1007.2 |
| 20260503185006 | 70 | 234 | 5.0 | 11.0 | 0.00 | 0.01 | 0.01 | 41 | 1007.4 |
| 20260503184527 | 70 | 295 | 4.0 | 15.0 | 0.00 | 0.01 | 0.01 | 41 | 1007.5 |
| 20260503184011 | 69 | 257 | 3.0 | 15.0 | 0.00 | 0.01 | 0.01 | 44 | 1007.6 |
| 20260503183512 | 69 | 246 | 4.0 | 14.0 | 0.00 | 0.01 | 0.01 | 41 | 1007.7 |
| 20260503183020 | 69 | 296 | 5.0 | 14.0 | 0.00 | 0.01 | 0.01 | 42 | 1007.7 |
| 20260503182509 | 69 | 226 | 4.0 | 11.0 | 0.00 | 0.01 | 0.01 | 39 | 1007.7 |
| 20260503182010 | 69 | 286 | 5.0 | 14.0 | 0.00 | 0.01 | 0.01 | 41 | 1007.8 |
| 20260503181529 | 69 | 210 | 4.0 | 14.0 | 0.00 | 0.01 | 0.01 | 41 | 1007.8 |
| 20260503181008 | 68 | 303 | 4.0 | 14.0 | 0.00 | 0.01 | 0.01 | 42 | 1007.9 |
| 20260503180507 | 68 | 244 | 5.0 | 14.0 | 0.00 | 0.01 | 0.01 | 41 | 1007.9 |
| 20260503180008 | 68 | 236 | 4.0 | 11.0 | 0.00 | 0.01 | 0.01 | 47 | 1008.0 |
| 20260503175508 | 67 | 231 | 5.0 | 11.0 | 0.00 | 0.01 | 0.01 | 44 | 1007.9 |
| 20260503175003 | 67 | 215 | 6.0 | 12.0 | 0.00 | 0.01 | 0.01 | 42 | 1008.0 |
| 20260503174543 | 66 | 274 | 6.0 | 13.0 | 0.00 | 0.01 | 0.01 | 45 | 1008.2 |
| 20260503174012 | 66 | 219 | 5.0 | 13.0 | 0.00 | 0.01 | 0.01 | 45 | 1008.3 |
| 20260503173511 | 66 | 261 | 4.0 | 13.0 | 0.00 | 0.01 | 0.01 | 45 | 1008.3 |
| 20260503173018 | 65 | 242 | 5.0 | 15.0 | 0.00 | 0.01 | 0.01 | 46 | 1008.3 |
| 20260503172509 | 65 | 139 | 7.0 | 15.0 | 0.00 | 0.01 | 0.01 | 46 | 1008.3 |
| 20260503172012 | 64 | 238 | 8.0 | 15.0 | 0.00 | 0.01 | 0.01 | 45 | 1008.5 |
| 20260503171522 | 64 | 212 | 3.0 | 15.0 | 0.00 | 0.01 | 0.01 | 47 | 1008.6 |
| 20260503171007 | 64 | 300 | 7.0 | 15.0 | 0.00 | 0.01 | 0.01 | 44 | 1008.7 |
| 20260503170507 | 64 | 240 | 4.0 | 15.0 | 0.00 | 0.01 | 0.01 | 45 | 1008.9 |